sensor_id;sensor_type;location;lat;lon;timestamp;P1;durP1;ratioP1;P2;durP2;ratioP2
45434;SDS011;31183;47.404;8.500;2023-04-24T00:01:01;0.63;;;0.63;;
45434;SDS011;31183;47.404;8.500;2023-04-24T00:03:28;0.93;;;0.65;;
45434;SDS011;31183;47.404;8.500;2023-04-24T00:05:55;0.68;;;0.68;;
45434;SDS011;31183;47.404;8.500;2023-04-24T00:08:22;1.20;;;0.57;;
45434;SDS011;31183;47.404;8.500;2023-04-24T00:10:49;1.55;;;0.75;;
45434;SDS011;31183;47.404;8.500;2023-04-24T00:13:18;1.02;;;0.70;;
45434;SDS011;31183;47.404;8.500;2023-04-24T00:15:45;0.82;;;0.60;;
45434;SDS011;31183;47.404;8.500;2023-04-24T00:18:11;0.82;;;0.60;;
45434;SDS011;31183;47.404;8.500;2023-04-24T00:20:38;1.13;;;0.70;;
45434;SDS011;31183;47.404;8.500;2023-04-24T00:23:05;1.70;;;0.55;;
45434;SDS011;31183;47.404;8.500;2023-04-24T00:25:32;2.58;;;0.70;;
45434;SDS011;31183;47.404;8.500;2023-04-24T00:27:59;1.10;;;0.52;;
45434;SDS011;31183;47.404;8.500;2023-04-24T00:30:26;1.58;;;0.80;;
45434;SDS011;31183;47.404;8.500;2023-04-24T00:32:52;2.17;;;0.65;;
45434;SDS011;31183;47.404;8.500;2023-04-24T00:35:19;1.05;;;0.55;;
45434;SDS011;31183;47.404;8.500;2023-04-24T00:37:46;0.50;;;0.40;;
45434;SDS011;31183;47.404;8.500;2023-04-24T00:40:12;0.40;;;0.40;;
45434;SDS011;31183;47.404;8.500;2023-04-24T00:42:40;0.70;;;0.70;;
45434;SDS011;31183;47.404;8.500;2023-04-24T00:45:07;1.00;;;0.50;;
45434;SDS011;31183;47.404;8.500;2023-04-24T00:47:33;0.90;;;0.80;;
45434;SDS011;31183;47.404;8.500;2023-04-24T00:50:01;2.17;;;0.95;;
45434;SDS011;31183;47.404;8.500;2023-04-24T00:52:29;1.77;;;0.55;;
45434;SDS011;31183;47.404;8.500;2023-04-24T00:54:58;0.88;;;0.40;;
45434;SDS011;31183;47.404;8.500;2023-04-24T00:57:25;0.50;;;0.45;;
45434;SDS011;31183;47.404;8.500;2023-04-24T00:59:52;0.73;;;0.55;;
45434;SDS011;31183;47.404;8.500;2023-04-24T01:02:19;1.33;;;0.47;;
45434;SDS011;31183;47.404;8.500;2023-04-24T01:04:47;0.47;;;0.47;;
45434;SDS011;31183;47.404;8.500;2023-04-24T01:07:15;0.38;;;0.30;;
45434;SDS011;31183;47.404;8.500;2023-04-24T01:09:44;1.45;;;0.35;;
45434;SDS011;31183;47.404;8.500;2023-04-24T01:12:14;0.40;;;0.30;;
45434;SDS011;31183;47.404;8.500;2023-04-24T01:14:41;0.70;;;0.22;;
45434;SDS011;31183;47.404;8.500;2023-04-24T01:17:08;2.28;;;0.50;;
45434;SDS011;31183;47.404;8.500;2023-04-24T01:19:35;0.50;;;0.50;;
45434;SDS011;31183;47.404;8.500;2023-04-24T01:22:03;0.30;;;0.30;;
45434;SDS011;31183;47.404;8.500;2023-04-24T01:24:34;0.32;;;0.30;;
45434;SDS011;31183;47.404;8.500;2023-04-24T01:27:01;0.35;;;0.30;;
45434;SDS011;31183;47.404;8.500;2023-04-24T01:29:27;0.77;;;0.47;;
45434;SDS011;31183;47.404;8.500;2023-04-24T01:31:54;2.13;;;0.40;;
45434;SDS011;31183;47.404;8.500;2023-04-24T01:34:21;0.30;;;0.30;;
45434;SDS011;31183;47.404;8.500;2023-04-24T01:36:48;0.20;;;0.20;;
45434;SDS011;31183;47.404;8.500;2023-04-24T01:39:15;0.90;;;0.40;;
45434;SDS011;31183;47.404;8.500;2023-04-24T01:41:42;0.28;;;0.28;;
45434;SDS011;31183;47.404;8.500;2023-04-24T01:44:09;1.25;;;0.30;;
45434;SDS011;31183;47.404;8.500;2023-04-24T01:46:35;0.40;;;0.40;;
45434;SDS011;31183;47.404;8.500;2023-04-24T01:49:02;0.45;;;0.30;;
45434;SDS011;31183;47.404;8.500;2023-04-24T01:51:29;0.38;;;0.30;;
45434;SDS011;31183;47.404;8.500;2023-04-24T01:53:56;0.55;;;0.30;;
45434;SDS011;31183;47.404;8.500;2023-04-24T01:56:22;0.50;;;0.30;;
45434;SDS011;31183;47.404;8.500;2023-04-24T01:58:50;0.30;;;0.30;;
45434;SDS011;31183;47.404;8.500;2023-04-24T02:01:19;0.28;;;0.28;;
45434;SDS011;31183;47.404;8.500;2023-04-24T02:03:47;0.30;;;0.30;;
45434;SDS011;31183;47.404;8.500;2023-04-24T02:06:13;1.98;;;0.40;;
45434;SDS011;31183;47.404;8.500;2023-04-24T02:08:40;0.20;;;0.20;;
45434;SDS011;31183;47.404;8.500;2023-04-24T02:11:10;0.38;;;0.20;;
45434;SDS011;31183;47.404;8.500;2023-04-24T02:13:37;0.20;;;0.20;;
45434;SDS011;31183;47.404;8.500;2023-04-24T02:16:03;0.95;;;0.30;;
45434;SDS011;31183;47.404;8.500;2023-04-24T02:18:30;0.40;;;0.30;;
45434;SDS011;31183;47.404;8.500;2023-04-24T02:20:57;1.30;;;0.30;;
45434;SDS011;31183;47.404;8.500;2023-04-24T02:23:23;0.57;;;0.50;;
45434;SDS011;31183;47.404;8.500;2023-04-24T02:25:50;1.05;;;0.40;;
45434;SDS011;31183;47.404;8.500;2023-04-24T02:28:19;1.23;;;0.55;;
45434;SDS011;31183;47.404;8.500;2023-04-24T02:30:45;0.40;;;0.22;;
45434;SDS011;31183;47.404;8.500;2023-04-24T02:33:12;0.60;;;0.30;;
45434;SDS011;31183;47.404;8.500;2023-04-24T02:35:39;0.17;;;0.13;;
45434;SDS011;31183;47.404;8.500;2023-04-24T02:38:05;0.88;;;0.30;;
45434;SDS011;31183;47.404;8.500;2023-04-24T02:40:32;0.52;;;0.25;;
45434;SDS011;31183;47.404;8.500;2023-04-24T02:42:59;0.22;;;0.22;;
45434;SDS011;31183;47.404;8.500;2023-04-24T02:45:25;0.20;;;0.20;;
45434;SDS011;31183;47.404;8.500;2023-04-24T02:47:52;1.17;;;0.30;;
45434;SDS011;31183;47.404;8.500;2023-04-24T02:50:18;0.65;;;0.40;;
45434;SDS011;31183;47.404;8.500;2023-04-24T02:52:45;0.17;;;0.17;;
45434;SDS011;31183;47.404;8.500;2023-04-24T02:55:12;0.28;;;0.28;;
45434;SDS011;31183;47.404;8.500;2023-04-24T02:57:38;0.15;;;0.15;;
45434;SDS011;31183;47.404;8.500;2023-04-24T03:00:05;0.40;;;0.40;;
45434;SDS011;31183;47.404;8.500;2023-04-24T03:02:33;1.55;;;0.30;;
45434;SDS011;31183;47.404;8.500;2023-04-24T03:05:00;0.47;;;0.30;;
45434;SDS011;31183;47.404;8.500;2023-04-24T03:07:28;1.45;;;0.50;;
45434;SDS011;31183;47.404;8.500;2023-04-24T03:09:54;0.30;;;0.30;;
45434;SDS011;31183;47.404;8.500;2023-04-24T03:12:21;0.22;;;0.20;;
45434;SDS011;31183;47.404;8.500;2023-04-24T03:14:49;0.30;;;0.30;;
45434;SDS011;31183;47.404;8.500;2023-04-24T03:17:16;0.20;;;0.20;;
45434;SDS011;31183;47.404;8.500;2023-04-24T03:19:43;0.43;;;0.20;;
45434;SDS011;31183;47.404;8.500;2023-04-24T03:22:10;0.40;;;0.30;;
45434;SDS011;31183;47.404;8.500;2023-04-24T03:24:37;0.22;;;0.22;;
45434;SDS011;31183;47.404;8.500;2023-04-24T03:27:03;3.80;;;0.30;;
45434;SDS011;31183;47.404;8.500;2023-04-24T03:29:30;0.10;;;0.10;;
45434;SDS011;31183;47.404;8.500;2023-04-24T03:31:57;1.55;;;0.30;;
45434;SDS011;31183;47.404;8.500;2023-04-24T03:34:23;0.60;;;0.40;;
45434;SDS011;31183;47.404;8.500;2023-04-24T03:36:50;0.20;;;0.20;;
45434;SDS011;31183;47.404;8.500;2023-04-24T03:39:18;1.38;;;0.40;;
45434;SDS011;31183;47.404;8.500;2023-04-24T03:41:45;0.20;;;0.20;;
45434;SDS011;31183;47.404;8.500;2023-04-24T03:44:12;0.55;;;0.55;;
45434;SDS011;31183;47.404;8.500;2023-04-24T03:46:38;0.30;;;0.20;;
45434;SDS011;31183;47.404;8.500;2023-04-24T03:49:05;0.32;;;0.30;;
45434;SDS011;31183;47.404;8.500;2023-04-24T03:51:32;0.30;;;0.30;;
45434;SDS011;31183;47.404;8.500;2023-04-24T03:53:58;1.13;;;0.85;;
45434;SDS011;31183;47.404;8.500;2023-04-24T03:56:25;0.28;;;0.20;;
45434;SDS011;31183;47.404;8.500;2023-04-24T03:58:51;0.30;;;0.25;;
45434;SDS011;31183;47.404;8.500;2023-04-24T04:01:18;1.35;;;0.30;;
45434;SDS011;31183;47.404;8.500;2023-04-24T04:03:46;0.20;;;0.17;;
45434;SDS011;31183;47.404;8.500;2023-04-24T04:06:13;0.10;;;0.10;;
45434;SDS011;31183;47.404;8.500;2023-04-24T04:08:40;0.88;;;0.50;;
45434;SDS011;31183;47.404;8.500;2023-04-24T04:11:07;0.40;;;0.40;;
45434;SDS011;31183;47.404;8.500;2023-04-24T04:13:33;0.30;;;0.30;;
45434;SDS011;31183;47.404;8.500;2023-04-24T04:16:00;0.22;;;0.22;;
45434;SDS011;31183;47.404;8.500;2023-04-24T04:18:27;2.25;;;0.38;;
45434;SDS011;31183;47.404;8.500;2023-04-24T04:20:53;0.45;;;0.20;;
45434;SDS011;31183;47.404;8.500;2023-04-24T04:23:20;0.57;;;0.20;;
45434;SDS011;31183;47.404;8.500;2023-04-24T04:25:46;0.20;;;0.20;;
45434;SDS011;31183;47.404;8.500;2023-04-24T04:28:13;1.17;;;0.30;;
45434;SDS011;31183;47.404;8.500;2023-04-24T04:30:39;3.38;;;0.40;;
45434;SDS011;31183;47.404;8.500;2023-04-24T04:33:07;0.20;;;0.20;;
45434;SDS011;31183;47.404;8.500;2023-04-24T04:35:34;0.47;;;0.40;;
45434;SDS011;31183;47.404;8.500;2023-04-24T04:38:01;0.95;;;0.82;;
45434;SDS011;31183;47.404;8.500;2023-04-24T04:40:27;0.98;;;0.40;;
45434;SDS011;31183;47.404;8.500;2023-04-24T04:42:54;1.20;;;0.50;;
45434;SDS011;31183;47.404;8.500;2023-04-24T04:45:21;1.70;;;0.40;;
45434;SDS011;31183;47.404;8.500;2023-04-24T04:47:47;0.57;;;0.57;;
45434;SDS011;31183;47.404;8.500;2023-04-24T04:50:14;0.65;;;0.50;;
45434;SDS011;31183;47.404;8.500;2023-04-24T04:52:42;0.55;;;0.55;;
45434;SDS011;31183;47.404;8.500;2023-04-24T04:55:09;0.40;;;0.40;;
45434;SDS011;31183;47.404;8.500;2023-04-24T04:57:36;0.73;;;0.50;;
45434;SDS011;31183;47.404;8.500;2023-04-24T05:00:02;0.45;;;0.30;;
45434;SDS011;31183;47.404;8.500;2023-04-24T05:02:30;0.47;;;0.47;;
45434;SDS011;31183;47.404;8.500;2023-04-24T05:04:57;1.67;;;0.70;;
45434;SDS011;31183;47.404;8.500;2023-04-24T05:07:23;1.10;;;0.60;;
45434;SDS011;31183;47.404;8.500;2023-04-24T05:09:50;3.85;;;0.85;;
45434;SDS011;31183;47.404;8.500;2023-04-24T05:12:18;0.95;;;0.70;;
45434;SDS011;31183;47.404;8.500;2023-04-24T05:14:44;1.02;;;1.00;;
45434;SDS011;31183;47.404;8.500;2023-04-24T05:17:11;1.10;;;0.68;;
45434;SDS011;31183;47.404;8.500;2023-04-24T05:19:38;0.40;;;0.40;;
45434;SDS011;31183;47.404;8.500;2023-04-24T05:22:04;1.58;;;0.70;;
45434;SDS011;31183;47.404;8.500;2023-04-24T05:24:33;0.70;;;0.70;;
45434;SDS011;31183;47.404;8.500;2023-04-24T05:27:00;0.57;;;0.57;;
45434;SDS011;31183;47.404;8.500;2023-04-24T05:29:28;1.85;;;0.85;;
45434;SDS011;31183;47.404;8.500;2023-04-24T05:31:57;0.90;;;0.70;;
45434;SDS011;31183;47.404;8.500;2023-04-24T05:34:24;1.08;;;0.82;;
45434;SDS011;31183;47.404;8.500;2023-04-24T05:36:50;1.58;;;0.90;;
45434;SDS011;31183;47.404;8.500;2023-04-24T05:39:18;2.85;;;0.90;;
45434;SDS011;31183;47.404;8.500;2023-04-24T05:41:45;1.15;;;0.98;;
45434;SDS011;31183;47.404;8.500;2023-04-24T05:44:12;1.48;;;1.20;;
45434;SDS011;31183;47.404;8.500;2023-04-24T05:46:38;2.38;;;1.40;;
45434;SDS011;31183;47.404;8.500;2023-04-24T05:49:05;2.38;;;1.13;;
45434;SDS011;31183;47.404;8.500;2023-04-24T05:51:31;2.15;;;1.65;;
45434;SDS011;31183;47.404;8.500;2023-04-24T05:53:58;3.20;;;2.10;;
45434;SDS011;31183;47.404;8.500;2023-04-24T05:56:25;2.65;;;2.20;;
45434;SDS011;31183;47.404;8.500;2023-04-24T05:58:51;2.60;;;1.60;;
45434;SDS011;31183;47.404;8.500;2023-04-24T06:01:18;2.65;;;2.00;;
45434;SDS011;31183;47.404;8.500;2023-04-24T06:03:45;1.95;;;1.80;;
45434;SDS011;31183;47.404;8.500;2023-04-24T06:06:12;2.42;;;1.80;;
45434;SDS011;31183;47.404;8.500;2023-04-24T06:08:39;2.10;;;1.30;;
45434;SDS011;31183;47.404;8.500;2023-04-24T06:11:06;3.03;;;1.45;;
45434;SDS011;31183;47.404;8.500;2023-04-24T06:13:32;1.42;;;1.25;;
45434;SDS011;31183;47.404;8.500;2023-04-24T06:15:59;1.23;;;1.13;;
45434;SDS011;31183;47.404;8.500;2023-04-24T06:18:26;1.45;;;1.20;;
45434;SDS011;31183;47.404;8.500;2023-04-24T06:20:52;1.90;;;1.02;;
45434;SDS011;31183;47.404;8.500;2023-04-24T06:23:19;1.20;;;0.70;;
45434;SDS011;31183;47.404;8.500;2023-04-24T06:25:45;1.15;;;0.95;;
45434;SDS011;31183;47.404;8.500;2023-04-24T06:28:12;0.80;;;0.80;;
45434;SDS011;31183;47.404;8.500;2023-04-24T06:30:39;1.42;;;0.90;;
45434;SDS011;31183;47.404;8.500;2023-04-24T06:33:05;2.22;;;0.73;;
45434;SDS011;31183;47.404;8.500;2023-04-24T06:35:46;1.10;;;0.70;;
45434;SDS011;31183;47.404;8.500;2023-04-24T06:38:12;0.70;;;0.70;;
45434;SDS011;31183;47.404;8.500;2023-04-24T06:40:39;0.60;;;0.60;;
45434;SDS011;31183;47.404;8.500;2023-04-24T06:43:06;1.35;;;1.25;;
45434;SDS011;31183;47.404;8.500;2023-04-24T06:45:33;1.50;;;0.70;;
45434;SDS011;31183;47.404;8.500;2023-04-24T06:47:59;0.70;;;0.57;;
45434;SDS011;31183;47.404;8.500;2023-04-24T06:50:26;2.35;;;1.15;;
45434;SDS011;31183;47.404;8.500;2023-04-24T06:52:53;1.33;;;0.95;;
45434;SDS011;31183;47.404;8.500;2023-04-24T06:55:19;1.88;;;0.80;;
45434;SDS011;31183;47.404;8.500;2023-04-24T06:57:46;2.40;;;0.75;;
45434;SDS011;31183;47.404;8.500;2023-04-24T07:00:12;1.45;;;0.90;;
45434;SDS011;31183;47.404;8.500;2023-04-24T07:02:39;1.38;;;0.75;;
45434;SDS011;31183;47.404;8.500;2023-04-24T07:05:06;1.40;;;1.13;;
45434;SDS011;31183;47.404;8.500;2023-04-24T07:07:34;3.17;;;0.95;;
45434;SDS011;31183;47.404;8.500;2023-04-24T07:10:04;1.92;;;0.90;;
45434;SDS011;31183;47.404;8.500;2023-04-24T07:12:31;2.15;;;1.00;;
45434;SDS011;31183;47.404;8.500;2023-04-24T07:14:59;1.75;;;0.98;;
45434;SDS011;31183;47.404;8.500;2023-04-24T07:17:26;1.58;;;1.08;;
45434;SDS011;31183;47.404;8.500;2023-04-24T07:19:53;1.65;;;1.00;;
45434;SDS011;31183;47.404;8.500;2023-04-24T07:22:19;2.90;;;1.00;;
45434;SDS011;31183;47.404;8.500;2023-04-24T07:24:46;1.30;;;1.20;;
45434;SDS011;31183;47.404;8.500;2023-04-24T07:27:13;3.60;;;1.20;;
45434;SDS011;31183;47.404;8.500;2023-04-24T07:29:41;2.28;;;1.00;;
45434;SDS011;31183;47.404;8.500;2023-04-24T07:32:08;2.35;;;1.02;;
45434;SDS011;31183;47.404;8.500;2023-04-24T07:34:35;1.30;;;1.20;;
45434;SDS011;31183;47.404;8.500;2023-04-24T07:37:01;2.72;;;1.20;;
45434;SDS011;31183;47.404;8.500;2023-04-24T07:39:29;3.45;;;1.40;;
45434;SDS011;31183;47.404;8.500;2023-04-24T07:41:55;3.70;;;1.38;;
45434;SDS011;31183;47.404;8.500;2023-04-24T07:44:22;3.45;;;1.55;;
45434;SDS011;31183;47.404;8.500;2023-04-24T07:46:49;3.03;;;1.88;;
45434;SDS011;31183;47.404;8.500;2023-04-24T07:49:16;2.97;;;1.70;;
45434;SDS011;31183;47.404;8.500;2023-04-24T07:51:45;1.10;;;1.00;;
45434;SDS011;31183;47.404;8.500;2023-04-24T07:54:11;1.83;;;1.10;;
45434;SDS011;31183;47.404;8.500;2023-04-24T07:56:38;2.05;;;1.60;;
45434;SDS011;31183;47.404;8.500;2023-04-24T07:59:05;2.45;;;1.70;;
45434;SDS011;31183;47.404;8.500;2023-04-24T08:01:32;2.95;;;1.80;;
45434;SDS011;31183;47.404;8.500;2023-04-24T08:03:59;5.72;;;2.20;;
45434;SDS011;31183;47.404;8.500;2023-04-24T08:06:26;2.33;;;2.00;;
45434;SDS011;31183;47.404;8.500;2023-04-24T08:08:56;6.07;;;1.77;;
45434;SDS011;31183;47.404;8.500;2023-04-24T08:11:24;4.97;;;1.65;;
45434;SDS011;31183;47.404;8.500;2023-04-24T08:13:51;3.42;;;2.00;;
45434;SDS011;31183;47.404;8.500;2023-04-24T08:16:17;2.70;;;2.20;;
45434;SDS011;31183;47.404;8.500;2023-04-24T08:18:44;5.97;;;2.45;;
45434;SDS011;31183;47.404;8.500;2023-04-24T08:21:11;2.65;;;2.10;;
45434;SDS011;31183;47.404;8.500;2023-04-24T08:23:43;2.72;;;2.08;;
45434;SDS011;31183;47.404;8.500;2023-04-24T08:26:09;3.58;;;2.65;;
45434;SDS011;31183;47.404;8.500;2023-04-24T08:28:37;8.63;;;2.83;;
45434;SDS011;31183;47.404;8.500;2023-04-24T08:31:04;4.38;;;3.38;;
45434;SDS011;31183;47.404;8.500;2023-04-24T08:33:30;3.45;;;2.42;;
45434;SDS011;31183;47.404;8.500;2023-04-24T08:36:03;5.90;;;2.53;;
45434;SDS011;31183;47.404;8.500;2023-04-24T08:38:31;3.30;;;2.72;;
45434;SDS011;31183;47.404;8.500;2023-04-24T08:40:58;6.40;;;3.08;;
45434;SDS011;31183;47.404;8.500;2023-04-24T08:43:26;3.65;;;2.83;;
45434;SDS011;31183;47.404;8.500;2023-04-24T08:45:55;3.67;;;3.05;;
45434;SDS011;31183;47.404;8.500;2023-04-24T08:48:23;5.88;;;2.95;;
45434;SDS011;31183;47.404;8.500;2023-04-24T08:50:57;3.63;;;2.83;;
45434;SDS011;31183;47.404;8.500;2023-04-24T08:53:25;3.30;;;2.60;;
45434;SDS011;31183;47.404;8.500;2023-04-24T08:55:52;4.72;;;3.22;;
45434;SDS011;31183;47.404;8.500;2023-04-24T08:58:21;4.63;;;3.80;;
45434;SDS011;31183;47.404;8.500;2023-04-24T09:00:51;3.80;;;3.30;;
45434;SDS011;31183;47.404;8.500;2023-04-24T09:03:20;3.88;;;3.17;;
45434;SDS011;31183;47.404;8.500;2023-04-24T09:05:48;4.28;;;2.85;;
45434;SDS011;31183;47.404;8.500;2023-04-24T09:08:17;3.08;;;2.67;;
45434;SDS011;31183;47.404;8.500;2023-04-24T09:10:45;6.85;;;3.17;;
45434;SDS011;31183;47.404;8.500;2023-04-24T09:13:15;3.90;;;2.90;;
45434;SDS011;31183;47.404;8.500;2023-04-24T09:15:42;3.50;;;2.95;;
45434;SDS011;31183;47.404;8.500;2023-04-24T09:18:08;2.97;;;2.55;;
45434;SDS011;31183;47.404;8.500;2023-04-24T09:20:51;3.70;;;2.50;;
45434;SDS011;31183;47.404;8.500;2023-04-24T09:23:31;4.10;;;2.35;;
45434;SDS011;31183;47.404;8.500;2023-04-24T09:25:58;3.87;;;2.23;;
45434;SDS011;31183;47.404;8.500;2023-04-24T09:28:27;4.72;;;2.75;;
45434;SDS011;31183;47.404;8.500;2023-04-24T09:31:13;5.60;;;2.65;;
45434;SDS011;31183;47.404;8.500;2023-04-24T09:33:53;3.35;;;2.38;;
45434;SDS011;31183;47.404;8.500;2023-04-24T09:36:30;3.40;;;2.50;;
45434;SDS011;31183;47.404;8.500;2023-04-24T09:39:06;3.35;;;2.30;;
45434;SDS011;31183;47.404;8.500;2023-04-24T09:41:34;6.68;;;2.10;;
45434;SDS011;31183;47.404;8.500;2023-04-24T09:44:10;4.57;;;2.78;;
45434;SDS011;31183;47.404;8.500;2023-04-24T09:46:40;7.10;;;2.55;;
45434;SDS011;31183;47.404;8.500;2023-04-24T09:49:08;3.90;;;2.42;;
45434;SDS011;31183;47.404;8.500;2023-04-24T09:51:37;4.20;;;2.60;;
45434;SDS011;31183;47.404;8.500;2023-04-24T09:54:04;8.85;;;3.88;;
45434;SDS011;31183;47.404;8.500;2023-04-24T09:56:41;5.00;;;3.28;;
45434;SDS011;31183;47.404;8.500;2023-04-24T09:59:12;3.78;;;3.03;;
45434;SDS011;31183;47.404;8.500;2023-04-24T10:01:40;3.55;;;2.10;;
45434;SDS011;31183;47.404;8.500;2023-04-24T10:06:49;3.10;;;2.33;;
45434;SDS011;31183;47.404;8.500;2023-04-24T10:09:17;2.80;;;2.42;;
45434;SDS011;31183;47.404;8.500;2023-04-24T10:11:46;5.70;;;2.45;;
45434;SDS011;31183;47.404;8.500;2023-04-24T10:14:15;3.05;;;2.17;;
45434;SDS011;31183;47.404;8.500;2023-04-24T10:16:43;5.22;;;2.55;;
45434;SDS011;31183;47.404;8.500;2023-04-24T10:19:13;4.97;;;2.65;;
45434;SDS011;31183;47.404;8.500;2023-04-24T10:21:41;5.60;;;4.78;;
45434;SDS011;31183;47.404;8.500;2023-04-24T10:24:18;6.87;;;4.00;;
45434;SDS011;31183;47.404;8.500;2023-04-24T10:26:48;4.40;;;3.50;;
45434;SDS011;31183;47.404;8.500;2023-04-24T10:29:16;6.63;;;3.75;;
45434;SDS011;31183;47.404;8.500;2023-04-24T10:31:44;6.18;;;3.25;;
45434;SDS011;31183;47.404;8.500;2023-04-24T10:34:14;7.43;;;3.28;;
45434;SDS011;31183;47.404;8.500;2023-04-24T10:36:43;3.22;;;2.13;;
45434;SDS011;31183;47.404;8.500;2023-04-24T10:39:14;5.63;;;2.83;;
45434;SDS011;31183;47.404;8.500;2023-04-24T10:41:42;2.72;;;2.05;;
45434;SDS011;31183;47.404;8.500;2023-04-24T10:44:10;4.15;;;2.13;;
45434;SDS011;31183;47.404;8.500;2023-04-24T10:46:38;4.75;;;2.17;;
45434;SDS011;31183;47.404;8.500;2023-04-24T10:49:08;4.63;;;2.70;;
45434;SDS011;31183;47.404;8.500;2023-04-24T10:51:45;3.47;;;2.63;;
45434;SDS011;31183;47.404;8.500;2023-04-24T10:56:50;3.58;;;2.50;;
45434;SDS011;31183;47.404;8.500;2023-04-24T10:59:24;5.85;;;2.60;;
45434;SDS011;31183;47.404;8.500;2023-04-24T11:01:53;4.88;;;2.90;;
45434;SDS011;31183;47.404;8.500;2023-04-24T11:04:30;4.82;;;2.50;;
45434;SDS011;31183;47.404;8.500;2023-04-24T11:06:58;5.10;;;2.35;;
45434;SDS011;31183;47.404;8.500;2023-04-24T11:09:26;6.75;;;2.35;;
45434;SDS011;31183;47.404;8.500;2023-04-24T11:12:04;4.13;;;1.92;;
45434;SDS011;31183;47.404;8.500;2023-04-24T11:17:29;4.78;;;2.17;;
45434;SDS011;31183;47.404;8.500;2023-04-24T11:20:09;4.35;;;2.38;;
45434;SDS011;31183;47.404;8.500;2023-04-24T11:22:53;4.93;;;2.70;;
45434;SDS011;31183;47.404;8.500;2023-04-24T11:25:21;4.07;;;2.63;;
45434;SDS011;31183;47.404;8.500;2023-04-24T11:27:52;3.87;;;2.37;;
45434;SDS011;31183;47.404;8.500;2023-04-24T11:30:29;3.63;;;2.40;;
45434;SDS011;31183;47.404;8.500;2023-04-24T11:33:01;3.60;;;2.33;;
45434;SDS011;31183;47.404;8.500;2023-04-24T11:35:30;6.10;;;2.45;;
45434;SDS011;31183;47.404;8.500;2023-04-24T11:38:03;4.90;;;2.80;;
45434;SDS011;31183;47.404;8.500;2023-04-24T11:40:34;3.95;;;2.85;;
45434;SDS011;31183;47.404;8.500;2023-04-24T11:43:00;4.40;;;2.42;;
45434;SDS011;31183;47.404;8.500;2023-04-24T11:45:28;4.00;;;2.50;;
45434;SDS011;31183;47.404;8.500;2023-04-24T11:47:56;8.40;;;3.42;;
45434;SDS011;31183;47.404;8.500;2023-04-24T11:50:23;5.88;;;2.83;;
45434;SDS011;31183;47.404;8.500;2023-04-24T11:52:52;4.90;;;2.22;;
45434;SDS011;31183;47.404;8.500;2023-04-24T11:57:47;6.25;;;2.60;;
45434;SDS011;31183;47.404;8.500;2023-04-24T12:00:20;5.47;;;2.90;;
45434;SDS011;31183;47.404;8.500;2023-04-24T12:02:48;3.83;;;2.00;;
45434;SDS011;31183;47.404;8.500;2023-04-24T12:05:20;3.67;;;1.80;;
45434;SDS011;31183;47.404;8.500;2023-04-24T12:07:50;5.20;;;2.95;;
45434;SDS011;31183;47.404;8.500;2023-04-24T12:10:20;4.70;;;2.28;;
45434;SDS011;31183;47.404;8.500;2023-04-24T12:12:51;3.83;;;2.17;;
45434;SDS011;31183;47.404;8.500;2023-04-24T12:15:19;5.38;;;2.25;;
45434;SDS011;31183;47.404;8.500;2023-04-24T12:17:47;7.45;;;2.35;;
45434;SDS011;31183;47.404;8.500;2023-04-24T12:20:16;3.35;;;2.10;;
45434;SDS011;31183;47.404;8.500;2023-04-24T12:22:47;2.60;;;1.80;;
45434;SDS011;31183;47.404;8.500;2023-04-24T12:25:33;3.35;;;2.10;;
45434;SDS011;31183;47.404;8.500;2023-04-24T12:30:31;3.03;;;1.80;;
45434;SDS011;31183;47.404;8.500;2023-04-24T12:33:04;3.47;;;2.47;;
45434;SDS011;31183;47.404;8.500;2023-04-24T12:35:32;3.20;;;1.95;;
45434;SDS011;31183;47.404;8.500;2023-04-24T12:38:09;5.97;;;2.65;;
45434;SDS011;31183;47.404;8.500;2023-04-24T12:40:39;2.30;;;2.10;;
45434;SDS011;31183;47.404;8.500;2023-04-24T12:45:41;3.65;;;1.92;;
45434;SDS011;31183;47.404;8.500;2023-04-24T12:48:08;3.55;;;2.00;;
45434;SDS011;31183;47.404;8.500;2023-04-24T12:50:34;2.30;;;2.05;;
45434;SDS011;31183;47.404;8.500;2023-04-24T12:53:01;2.95;;;2.35;;
45434;SDS011;31183;47.404;8.500;2023-04-24T12:55:28;2.15;;;1.95;;
45434;SDS011;31183;47.404;8.500;2023-04-24T12:57:55;3.67;;;2.42;;
45434;SDS011;31183;47.404;8.500;2023-04-24T13:00:22;4.75;;;1.80;;
45434;SDS011;31183;47.404;8.500;2023-04-24T13:02:48;3.42;;;2.45;;
45434;SDS011;31183;47.404;8.500;2023-04-24T13:05:15;4.72;;;2.30;;
45434;SDS011;31183;47.404;8.500;2023-04-24T13:07:42;4.07;;;2.80;;
45434;SDS011;31183;47.404;8.500;2023-04-24T13:10:09;7.70;;;2.28;;
45434;SDS011;31183;47.404;8.500;2023-04-24T13:12:36;4.82;;;2.38;;
45434;SDS011;31183;47.404;8.500;2023-04-24T13:15:03;8.02;;;2.65;;
45434;SDS011;31183;47.404;8.500;2023-04-24T13:17:30;3.40;;;2.10;;
45434;SDS011;31183;47.404;8.500;2023-04-24T13:19:57;3.22;;;1.95;;
45434;SDS011;31183;47.404;8.500;2023-04-24T13:22:24;3.55;;;1.80;;
45434;SDS011;31183;47.404;8.500;2023-04-24T13:24:51;3.45;;;2.20;;
45434;SDS011;31183;47.404;8.500;2023-04-24T13:27:17;2.45;;;1.77;;
45434;SDS011;31183;47.404;8.500;2023-04-24T13:29:44;3.88;;;2.05;;
45434;SDS011;31183;47.404;8.500;2023-04-24T13:32:11;2.67;;;1.70;;
45434;SDS011;31183;47.404;8.500;2023-04-24T13:34:38;3.17;;;1.92;;
45434;SDS011;31183;47.404;8.500;2023-04-24T13:37:05;3.40;;;1.90;;
45434;SDS011;31183;47.404;8.500;2023-04-24T13:39:32;4.68;;;2.35;;
45434;SDS011;31183;47.404;8.500;2023-04-24T13:41:59;2.60;;;2.20;;
45434;SDS011;31183;47.404;8.500;2023-04-24T13:44:29;3.95;;;2.47;;
45434;SDS011;31183;47.404;8.500;2023-04-24T13:46:55;4.30;;;2.55;;
45434;SDS011;31183;47.404;8.500;2023-04-24T13:49:24;3.72;;;2.47;;
45434;SDS011;31183;47.404;8.500;2023-04-24T13:51:51;3.80;;;2.70;;
45434;SDS011;31183;47.404;8.500;2023-04-24T13:54:19;3.67;;;2.20;;
45434;SDS011;31183;47.404;8.500;2023-04-24T13:56:45;4.88;;;2.92;;
45434;SDS011;31183;47.404;8.500;2023-04-24T13:59:12;2.85;;;2.17;;
45434;SDS011;31183;47.404;8.500;2023-04-24T14:01:39;3.63;;;2.40;;
45434;SDS011;31183;47.404;8.500;2023-04-24T14:04:06;8.48;;;2.92;;
45434;SDS011;31183;47.404;8.500;2023-04-24T14:06:33;4.47;;;2.15;;
45434;SDS011;31183;47.404;8.500;2023-04-24T14:08:59;4.05;;;2.00;;
45434;SDS011;31183;47.404;8.500;2023-04-24T14:11:26;4.32;;;2.42;;
45434;SDS011;31183;47.404;8.500;2023-04-24T14:13:53;4.80;;;2.60;;
45434;SDS011;31183;47.404;8.500;2023-04-24T14:16:22;3.63;;;2.40;;
45434;SDS011;31183;47.404;8.500;2023-04-24T14:18:49;3.97;;;2.28;;
45434;SDS011;31183;47.404;8.500;2023-04-24T14:21:16;3.08;;;2.20;;
45434;SDS011;31183;47.404;8.500;2023-04-24T14:23:42;4.47;;;2.75;;
45434;SDS011;31183;47.404;8.500;2023-04-24T14:26:10;5.18;;;3.17;;
45434;SDS011;31183;47.404;8.500;2023-04-24T14:28:37;2.80;;;2.28;;
45434;SDS011;31183;47.404;8.500;2023-04-24T14:31:03;6.10;;;2.72;;
45434;SDS011;31183;47.404;8.500;2023-04-24T14:33:30;4.80;;;2.88;;
45434;SDS011;31183;47.404;8.500;2023-04-24T14:35:57;6.05;;;2.92;;
45434;SDS011;31183;47.404;8.500;2023-04-24T14:38:24;5.30;;;2.15;;
45434;SDS011;31183;47.404;8.500;2023-04-24T14:40:51;4.22;;;2.50;;
45434;SDS011;31183;47.404;8.500;2023-04-24T14:43:31;4.18;;;2.03;;
45434;SDS011;31183;47.404;8.500;2023-04-24T14:45:58;4.15;;;1.88;;
45434;SDS011;31183;47.404;8.500;2023-04-24T14:48:26;5.10;;;2.70;;
45434;SDS011;31183;47.404;8.500;2023-04-24T14:50:52;4.15;;;2.20;;
45434;SDS011;31183;47.404;8.500;2023-04-24T14:53:20;2.60;;;2.30;;
45434;SDS011;31183;47.404;8.500;2023-04-24T14:55:46;3.58;;;2.15;;
45434;SDS011;31183;47.404;8.500;2023-04-24T14:58:13;4.20;;;2.30;;
45434;SDS011;31183;47.404;8.500;2023-04-24T15:00:39;2.13;;;1.85;;
45434;SDS011;31183;47.404;8.500;2023-04-24T15:03:06;3.05;;;2.40;;
45434;SDS011;31183;47.404;8.500;2023-04-24T15:05:33;3.03;;;2.42;;
45434;SDS011;31183;47.404;8.500;2023-04-24T15:08:01;2.30;;;2.10;;